Latest Weather Observations for Mount Magnet Airport

IDW60801

Issued at 5:03 am WST Saturday 7 March 2015 (issued every 30 minutes, with the page automatically refreshed every 10 minutes)

About weather observations | Map of weather stations | Latest weather observations for WA | Other Formats
Station Details ID: 007600 Name: MOUNT MAGNET AERO Lat: -28.12 Lon: 117.84 Height: 407.0 m
Data from the previous 72 hours. | See also: Recent months at Mount Magnet Airport
Date/Time
WST
Temp
°C
App
Temp
°C
Dew
Point
Rel
Hum
%
Delta-T
°C
Wind Press
QNH
hPa
Press
MSL
hPa
Rain
since 9 am
mm
Dir
 
Spd
km/h
Gust
km/h
Spd
kts
Gust
kts
07/05:00am 18.2 20.6 16.9 92 0.8 CALM 0 0 0 0 1017.9 1015.3 14.4
07/04:30am 18.3 20.7 17.0 92 0.8 CALM 0 0 0 0 1017.8 1015.2 13.8
07/04:00am 18.3 19.6 17.1 93 0.7 E 6 7 3 4 1017.2 1014.6 13.4
07/03:30am 18.3 18.6 17.0 92 0.8 E 11 13 6 7 1016.7 1014.1 13.2
07/03:00am 18.3 18.2 17.0 92 0.8 ENE 13 17 7 9 1016.8 1014.2 13.2
07/02:30am 18.5 18.0 17.0 91 0.9 E 15 20 8 11 1016.7 1014.1 13.2
07/02:00am 18.6 18.1 16.8 89 1.1 E 15 20 8 11 1016.9 1014.3 13.2
07/01:30am 18.8 18.7 16.9 89 1.2 E 13 17 7 9 1017.0 1014.4 13.0
07/01:00am 18.8 17.9 16.8 88 1.2 E 17 20 9 11 1017.2 1014.6 13.0
07/12:30am 18.9 17.4 16.7 87 1.3 E 20 28 11 15 1017.5 1014.9 13.0
07/12:00am 18.9 17.5 16.9 88 1.2 E 20 26 11 14 1017.8 1015.2 13.0
 
Date/Time
WST
Temp
°C
App
Temp
°C
Dew
Point
Rel
Hum
%
Delta-T
°C
Wind Press
QNH
hPa
Press
MSL
hPa
Rain
since 9 am
mm
Dir
 
Spd
km/h
Gust
km/h
Spd
kts
Gust
kts
06/11:30pm 18.9 18.5 17.2 90 1.1 E 15 20 8 11 1018.1 1015.6 13.0
06/11:00pm 19.0 19.0 17.3 90 1.1 E 13 17 7 9 1018.5 1016.0 13.0
06/10:30pm 19.0 17.6 17.1 89 1.2 E 20 30 11 16 1018.6 1016.1 13.0
06/10:00pm 19.2 18.4 17.2 88 1.2 E 17 24 9 13 1018.9 1016.4 13.0
06/09:30pm 19.2 18.4 17.2 88 1.2 E 17 24 9 13 1018.9 1016.4 13.0
06/09:00pm 19.3 19.0 17.3 88 1.2 ESE 15 20 8 11 1018.8 1016.3 13.0
06/08:30pm 19.2 18.4 17.2 88 1.2 E 17 22 9 12 1018.6 1016.1 13.0
06/08:00pm 19.2 18.4 17.2 88 1.2 ESE 17 22 9 12 1018.1 1015.6 13.0
06/07:30pm 19.1 18.3 17.2 89 1.2 E 17 24 9 13 1017.9 1015.3 13.0
06/07:00pm 19.0 17.8 17.0 88 1.2 ESE 19 26 10 14 1017.7 1015.1 13.0
06/06:30pm 19.0 17.8 17.0 88 1.2 ESE 19 24 10 13 1017.4 1014.8 13.0
06/06:00pm 19.1 17.3 16.9 87 1.4 ESE 22 30 12 16 1017.3 1014.7 13.0
06/05:30pm 19.2 18.1 17.2 88 1.2 E 19 28 10 15 1017.2 1014.6 13.0
06/05:00pm 19.2 17.9 17.2 88 1.2 ESE 20 28 11 15 1017.1 1014.5 13.0
06/04:30pm 19.2 18.0 17.5 90 1.1 ESE 20 30 11 16 1017.1 1014.5 13.0
06/04:00pm 19.0 17.2 17.8 93 0.7 ESE 24 33 13 18 1017.1 1014.5 13.0
06/03:30pm 18.8 17.9 17.8 94 0.6 ESE 19 24 10 13 1017.4 1014.8 13.0
06/03:00pm 18.5 17.6 17.7 95 0.5 ESE 19 24 10 13 1017.5 1014.9 12.8
06/02:30pm 18.6 17.7 17.8 95 0.5 ESE 19 26 10 14 1017.9 1015.3 11.6
06/02:00pm 18.6 17.8 17.9 96 0.4 ESE 19 24 10 13 1018.3 1015.8 10.6
06/01:30pm 18.5 18.0 17.7 95 0.5 ESE 17 20 9 11 1018.5 1016.0 8.0
06/01:00pm 18.2 17.8 17.2 94 0.6 ESE 15 24 8 13 1018.9 1016.4 6.2
06/12:30pm 18.1 17.6 16.8 92 0.8 E 15 20 8 11 1019.5 1016.9 3.8
06/12:00pm 18.1 17.5 16.6 91 0.9 E 15 20 8 11 1019.8 1017.2 3.4
06/11:30am 18.3 17.1 16.1 87 1.3 E 17 24 9 13 1020.2 1017.7 2.0
06/11:00am 18.0 17.0 16.7 92 0.8 E 17 22 9 12 1020.3 1017.8 1.8
06/10:30am 18.1 17.2 16.8 92 0.8 E 17 22 9 12 1020.6 1018.1 1.2
06/10:00am 18.0 17.3 16.5 91 0.9 E 15 20 8 11 1020.8 1018.3 0.2
06/09:30am 17.6 17.7 16.6 94 0.6 ESE 11 15 6 8 1020.8 1018.3 0.2
06/09:00am 17.1 16.7 16.1 94 0.6 SE 13 19 7 10 1020.7 1018.2 15.8
06/08:30am 16.9 16.8 16.1 95 0.5 ESE 11 15 6 8 1020.6 1018.1 15.8
06/08:00am 16.6 15.3 15.8 95 0.5 ESE 17 20 9 11 1020.1 1017.5 15.2
06/07:30am 16.5 17.0 15.5 94 0.6 ESE 7 11 4 6 1020.8 1018.3 14.0
06/07:00am 16.4 15.7 15.4 94 0.6 E 13 15 7 8 1020.6 1018.1 12.8
06/06:30am 16.3 16.0 15.5 95 0.5 E 11 13 6 7 1020.2 1017.7 12.8
06/06:00am 16.2 14.7 15.4 95 0.5 E 17 22 9 12 1019.5 1016.9 12.6
06/05:30am 16.1 14.6 15.3 95 0.5 E 17 24 9 13 1019.5 1016.9 12.0
06/05:00am 16.0 14.9 15.2 95 0.5 E 15 20 8 11 1019.7 1017.1 11.4
06/04:30am 16.0 14.5 15.2 95 0.5 E 17 22 9 12 1019.8 1017.2 10.8
06/04:00am 16.0 14.5 15.2 95 0.5 ESE 17 20 9 11 1019.7 1017.1 10.2
06/03:30am 15.9 15.1 15.1 95 0.5 E 13 20 7 11 1019.9 1017.3 10.0
06/03:00am 15.9 15.9 15.1 95 0.5 E 9 11 5 6 1020.4 1017.9 9.8
06/02:30am 15.8 15.7 15.0 95 0.5 ESE 9 13 5 7 1020.5 1018.0 9.6
06/02:00am 15.8 15.3 15.0 95 0.5 SE 11 13 6 7 1020.3 1017.8 9.0
06/01:30am 15.9 15.7 14.8 93 0.6 SE 9 15 5 8 1020.6 1018.1 8.6
06/01:00am 15.8 14.0 14.5 92 0.8 E 17 26 9 14 1020.4 1017.9 8.2
06/12:30am 15.7 13.4 14.6 93 0.6 E 20 28 11 15 1020.3 1017.8 8.2
06/12:00am 15.6 12.9 14.5 93 0.6 E 22 30 12 16 1020.5 1018.0 8.0
 
Date/Time
WST
Temp
°C
App
Temp
°C
Dew
Point
Rel
Hum
%
Delta-T
°C
Wind Press
QNH
hPa
Press
MSL
hPa
Rain
since 9 am
mm
Dir
 
Spd
km/h
Gust
km/h
Spd
kts
Gust
kts
05/11:30pm 15.6 12.9 14.6 94 0.6 E 22 35 12 19 1020.6 1018.1 7.8
05/11:00pm 15.6 12.9 14.5 93 0.6 E 22 32 12 17 1021.2 1018.7 7.4
05/10:30pm 15.5 13.1 14.5 94 0.6 ESE 20 26 11 14 1021.3 1018.8 7.2
05/10:00pm 15.6 14.2 14.6 94 0.6 SE 15 20 8 11 1021.9 1019.3 7.0
05/09:30pm 15.6 13.9 14.6 94 0.6 SE 17 20 9 11 1022.2 1019.6 6.8
05/09:00pm 15.8 14.4 14.5 92 0.8 ESE 15 20 8 11 1022.7 1020.2 5.8
05/08:30pm 15.8 14.1 14.7 93 0.6 E 17 24 9 13 1022.0 1019.4 5.2
05/08:00pm 15.7 12.6 14.4 92 0.8 E 24 33 13 18 1021.4 1018.9 5.2
05/07:30pm 15.7 13.2 14.2 91 0.9 ESE 20 32 11 17 1021.0 1018.5 4.6
05/07:00pm 15.9 12.0 14.4 91 0.9 ESE 28 41 15 22 1020.8 1018.3 4.4
05/06:30pm 16.2 14.6 14.9 92 0.8 ESE 17 24 9 13 1021.1 1018.6 4.0
05/06:00pm 16.1 13.0 14.6 91 0.9 E 24 33 13 18 1020.8 1018.3 3.8
05/05:30pm 16.4 14.5 15.1 92 0.8 SE 19 24 10 13 1020.7 1018.2 3.0
05/05:00pm 16.3 13.7 14.8 91 0.9 ESE 22 28 12 15 1020.2 1017.7 2.4
05/04:30pm 16.5 14.5 15.0 91 0.9 SE 19 24 10 13 1020.4 1017.9 2.0
05/04:00pm 16.5 13.5 14.7 89 1.1 ESE 24 35 13 19 1020.5 1018.0 1.4
05/03:30pm 17.3 15.1 14.9 86 1.4 ESE 20 30 11 16 1020.4 1017.9 1.2
05/03:00pm 17.7 15.0 15.5 87 1.3 ESE 24 32 13 17 1020.2 1017.7 1.2
05/02:30pm 17.6 16.2 15.6 88 1.2 ESE 17 24 9 13 1020.7 1018.2 1.0
05/02:00pm 17.4 15.5 15.2 87 1.3 ESE 19 28 10 15 1020.9 1018.4 0.8
05/01:30pm 17.3 14.8 15.1 87 1.3 ESE 22 32 12 17 1020.8 1018.3 0.6
05/01:00pm 17.3 14.3 14.8 85 1.5 ESE 24 30 13 16 1021.1 1018.6 0.6
05/12:30pm 16.9 13.5 14.7 87 1.3 SE 26 33 14 18 1021.7 1019.1 0.6
05/12:00pm 17.2 14.6 14.8 86 1.4 ESE 22 33 12 18 1022.0 1019.4 0.6
05/11:30am 17.4 14.5 15.2 87 1.3 ESE 24 35 13 19 1022.3 1019.7 0.6
05/11:00am 17.4 14.9 15.2 87 1.3 ESE 22 30 12 16 1022.5 1020.0 0.6
05/10:30am 17.2 15.3 15.7 91 0.9 E 20 30 11 16 1022.6 1020.1 0.4
05/10:00am 16.8 13.6 15.2 90 0.9 E 26 35 14 19 1022.8 1020.3 0.2
05/09:30am 16.9 15.4 15.4 91 0.9 ESE 17 24 9 13 1022.9 1020.4 0.0
05/09:00am 16.8 14.3 15.2 90 0.9 E 22 32 12 17 1022.7 1020.2 0.8
05/08:30am 16.6 14.5 15.1 91 0.9 ESE 20 28 11 15 1022.5 1020.0 0.6
05/08:00am 16.6 14.0 14.8 89 1.1 E 22 35 12 19 1022.2 1019.6 0.0
05/07:30am 16.9 14.2 14.5 86 1.4 ESE 22 32 12 17 1021.9 1019.3 0.0
05/07:00am 16.6 14.3 14.6 88 1.2 ESE 20 28 11 15 1021.4 1018.9 0.0
05/06:30am 16.3 14.2 14.8 91 0.9 ESE 19 28 10 15 1021.2 1018.7 0.0
05/06:00am 16.6 14.4 14.8 89 1.1 ESE 20 28 11 15 1021.0 1018.5 0.0
05/05:30am 16.8 14.5 14.6 87 1.3 ESE 20 28 11 15 1020.8 1018.3 0.0
05/05:00am 17.1 14.3 14.4 84 1.6 E 22 28 12 15 1020.6 1018.1 0.0
05/04:30am 17.2 14.3 14.1 82 1.8 ESE 22 30 12 16 1020.4 1017.9 0.0
05/04:00am 17.2 14.7 14.1 82 1.8 E 20 28 11 15 1020.4 1017.9 0.0
05/03:30am 17.2 14.8 14.5 84 1.6 E 20 26 11 14 1020.2 1017.7 0.0
05/03:00am 17.3 14.5 14.4 83 1.7 E 22 30 12 16 1020.0 1017.4 0.0
05/02:30am 17.2 14.5 14.5 84 1.6 E 22 32 12 17 1020.1 1017.5 0.0
05/02:00am 16.9 13.8 14.4 85 1.5 ESE 24 30 13 16 1020.0 1017.4 0.0
05/01:30am 16.9 13.8 14.5 86 1.4 ESE 24 32 13 17 1020.0 1017.4 0.0
05/01:00am 17.1 14.1 14.7 86 1.4 ESE 24 33 13 18 1020.2 1017.7 0.0
05/12:30am 17.8 14.9 15.2 85 1.5 ESE 24 35 13 19 1020.3 1017.8 0.0
05/12:00am 17.8 14.9 15.2 85 1.5 ESE 24 33 13 18 1020.6 1018.1 0.0
 
Date/Time
WST
Temp
°C
App
Temp
°C
Dew
Point
Rel
Hum
%
Delta-T
°C
Wind Press
QNH
hPa
Press
MSL
hPa
Rain
since 9 am
mm
Dir
 
Spd
km/h
Gust
km/h
Spd
kts
Gust
kts
04/11:30pm 18.0 15.9 15.3 84 1.6 ESE 20 32 11 17 1021.0 1018.5 0.0
04/11:00pm 18.1 16.1 15.4 84 1.6 ESE 20 30 11 16 1021.1 1018.6 0.0
04/10:30pm 18.6 15.4 15.3 81 2.0 ESE 26 33 14 18 1020.9 1018.4 0.0
04/10:00pm 18.3 16.1 15.9 86 1.4 ESE 22 32 12 17 1021.2 1018.7 0.0
04/09:30pm 18.8 16.6 15.9 83 1.8 ESE 22 32 12 17 1021.3 1018.8 0.0
04/09:00pm 19.1 16.2 16.0 82 1.9 ESE 26 37 14 20 1021.1 1018.6 0.0
04/08:30pm 18.7 16.0 16.5 87 1.3 ESE 26 35 14 19 1021.1 1018.6 0.0
04/08:00pm 19.4 16.5 16.1 81 2.0 ESE 26 37 14 20 1020.8 1018.3 0.0
04/07:30pm 19.8 17.1 16.6 82 2.0 ESE 26 39 14 21 1020.4 1017.9 0.0
04/07:00pm 20.3 18.0 16.7 80 2.2 ESE 24 32 13 17 1019.9 1017.3 0.0
04/06:30pm 20.7 17.6 16.5 77 2.6 ESE 28 39 15 21 1019.8 1017.2 0.0
04/06:00pm 21.1 18.4 16.7 76 2.7 ESE 26 35 14 19 1019.2 1016.6 0.0
04/05:30pm 21.5 18.1 16.7 74 3.0 ESE 30 41 16 22 1018.8 1016.3 0.0
04/05:00pm 21.9 18.9 16.8 73 3.2 ESE 28 39 15 21 1018.8 1016.3 0.0
04/04:30pm 22.0 19.0 16.7 72 3.3 E 28 39 15 21 1018.8 1016.3 0.0
04/04:00pm 22.5 19.5 16.8 70 3.5 E 28 37 15 20 1018.7 1016.2 0.0
04/03:30pm 22.5 19.1 16.8 70 3.5 E 30 41 16 22 1018.7 1016.2 0.0
04/03:00pm 22.2 18.3 16.5 70 3.5 E 32 43 17 23 1018.7 1016.2 0.0
04/02:30pm 22.0 18.9 16.5 71 3.4 E 28 37 15 20 1019.1 1016.5 0.0
04/02:00pm 21.4 18.9 17.0 76 2.7 ESE 26 39 14 21 1019.4 1016.8 0.0
04/01:30pm 21.3 19.9 16.9 76 2.7 ESE 20 30 11 16 1019.5 1016.9 0.0
04/01:00pm 21.3 19.0 16.7 75 2.8 ESE 24 35 13 19 1019.6 1017.0 0.0
04/12:30pm 21.3 19.6 16.3 73 3.1 ESE 20 33 11 18 1019.7 1017.1 0.0
04/12:00pm 21.1 19.3 16.1 73 3.1 ESE 20 32 11 17 1019.9 1017.3 0.0
04/11:30am 21.0 18.5 16.2 74 2.9 E 24 33 13 18 1020.0 1017.4 0.0
04/11:00am 20.9 18.7 15.9 73 3.0 E 22 30 12 16 1020.4 1017.9 0.0
04/10:30am 20.8 17.8 15.8 73 3.0 E 26 35 14 19 1020.6 1018.1 0.0
04/10:00am 20.8 17.4 15.8 73 3.0 E 28 35 15 19 1020.7 1018.2 0.0
04/09:30am 20.7 17.6 15.5 72 3.1 ENE 26 33 14 18 1020.6 1018.1 0.0
04/09:00am 20.6 17.9 15.6 73 3.0 E 24 32 13 17 1020.6 1018.1 0.0
04/08:30am 20.3 18.4 15.7 75 2.8 ENE 20 28 11 15 1020.5 1018.0 0.0
04/08:00am 19.9 18.1 15.5 76 2.6 E 19 28 10 15 1020.4 1017.9 0.0
04/07:30am 19.8 17.9 15.7 77 2.5 E 20 30 11 16 1020.1 1017.5 0.0
04/07:00am 19.6 17.2 15.5 77 2.5 E 22 32 12 17 1019.7 1017.1 0.0
04/06:30am 19.6 16.8 15.3 76 2.6 E 24 35 13 19 1019.2 1016.6 0.0
04/06:00am 19.5 17.6 15.2 76 2.6 E 19 24 10 13 1018.9 1016.4 0.0
04/05:30am 19.5 17.4 15.2 76 2.6 E 20 28 11 15 1018.3 1015.8 0.0

Other Formats:

Comma delimited format used in spreadsheet applications
http://www.bom.gov.au/fwo/IDW60801/IDW60801.94429.axf

JavaScript Object Notation format (JSON) in row-major order
http://www.bom.gov.au/fwo/IDW60801/IDW60801.94429.json